Time;durP1;ratioP1;P1;durP2;ratioP2;P2;SDS_P1;SDS_P2;PMS_P1;PMS_P2;Temp;Humidity;BMP_temperature;BMP_pressure;BME280_temperature;BME280_humidity;BME280_pressure;Samples;Min_cycle;Max_cycle;Signal;HPM_P1;HPM_P2
2022/03/05 00:08:38;;;;;;;;;0.00;0.00;;;;;;;;2;288085370;288085370;-81
2022/03/05 00:16:53;;;;;;;;;0.00;0.00;;;;;;;;2;261078293;261078293;-82
2022/03/05 00:26:21;;;;;;;;;0.00;0.00;;;;;;;;2;288082111;288082111;-82
2022/03/05 00:34:37;;;;;;;;;0.00;0.00;;;;;;;;2;261075197;261075197;-82
2022/03/05 00:44:04;;;;;;;;;0.00;0.00;;;;;;;;2;288086493;288086493;-83
2022/03/05 00:52:20;;;;;;;;;0.00;0.00;;;;;;;;2;261074072;261074072;-82
2022/03/05 01:01:48;;;;;;;;;0.00;0.00;;;;;;;;2;288085572;288085572;-82
2022/03/05 01:10:04;;;;;;;;;0.00;0.00;;;;;;;;2;261074915;261074915;-83
2022/03/05 01:19:32;;;;;;;;;0.00;0.00;;;;;;;;2;288086298;288086298;-82
2022/03/05 01:27:47;;;;;;;;;0.00;0.00;;;;;;;;2;261075970;261075970;-83
2022/03/05 01:37:15;;;;;;;;;0.00;0.00;;;;;;;;2;288083931;288083931;-82
2022/03/05 01:45:30;;;;;;;;;0.00;0.00;;;;;;;;2;261075127;261075127;-82
2022/03/05 01:54:58;;;;;;;;;0.00;0.00;;;;;;;;2;288085513;288085513;-82
2022/03/05 02:03:13;;;;;;;;;0.00;0.00;;;;;;;;2;261077332;261077332;-82
2022/03/05 02:12:41;;;;;;;;;0.00;0.00;;;;;;;;2;288083861;288083861;-82
2022/03/05 02:20:56;;;;;;;;;0.00;0.00;;;;;;;;2;261074902;261074902;-82
2022/03/05 02:30:24;;;;;;;;;0.00;0.00;;;;;;;;2;288082623;288082623;-82
2022/03/05 02:38:39;;;;;;;;;0.00;0.00;;;;;;;;2;261072991;261072991;-81
2022/03/05 02:48:09;;;;;;;;;0.00;0.00;;;;;;;;2;288083553;288083553;-82
2022/03/05 02:56:24;;;;;;;;;0.00;0.00;;;;;;;;2;261079289;261079289;-82
2022/03/05 03:05:52;;;;;;;;;0.00;0.00;;;;;;;;2;288080791;288080791;-83
2022/03/05 03:14:07;;;;;;;;;0.00;0.00;;;;;;;;2;261076564;261076564;-83
2022/03/05 03:23:35;;;;;;;;;0.00;0.00;;;;;;;;2;288083113;288083113;-82
2022/03/05 03:31:50;;;;;;;;;0.00;0.00;;;;;;;;2;261077493;261077493;-82
2022/03/05 03:41:18;;;;;;;;;0.00;0.00;;;;;;;;2;288085338;288085338;-82
2022/03/05 03:49:33;;;;;;;;;0.00;0.00;;;;;;;;2;261075626;261075626;-82
2022/03/05 03:59:03;;;;;;;;;0.00;0.00;;;;;;;;2;288082960;288082960;-83
2022/03/05 04:17:05;;;;;;;;;0.00;0.00;;;;;;;;2;288080928;288080928;-82
2022/03/05 04:25:21;;;;;;;;;0.00;0.00;;;;;;;;2;261075829;261075829;-82
2022/03/05 04:34:49;;;;;;;;;0.00;0.00;;;;;;;;2;288083271;288083271;-83
2022/03/05 04:43:04;;;;;;;;;0.00;0.00;;;;;;;;2;261078309;261078309;-83
2022/03/05 04:52:32;;;;;;;;;0.00;0.00;;;;;;;;2;288084806;288084806;-83
2022/03/05 05:00:47;;;;;;;;;0.00;0.00;;;;;;;;2;261075284;261075284;-82
2022/03/05 05:10:15;;;;;;;;;0.00;0.00;;;;;;;;2;288085700;288085700;-80
2022/03/05 05:18:30;;;;;;;;;0.00;0.00;;;;;;;;2;261079100;261079100;-79
2022/03/05 05:27:58;;;;;;;;;0.00;0.00;;;;;;;;2;288084111;288084111;-79
2022/03/05 05:36:13;;;;;;;;;0.00;0.00;;;;;;;;2;261077978;261077978;-79
2022/03/05 05:45:41;;;;;;;;;0.00;0.00;;;;;;;;2;288087892;288087892;-80
2022/03/05 05:53:56;;;;;;;;;0.00;0.00;;;;;;;;2;261075626;261075626;-79
2022/03/05 06:03:24;;;;;;;;;0.00;0.00;;;;;;;;2;288083507;288083507;-79
2022/03/05 06:11:39;;;;;;;;;0.00;0.00;;;;;;;;2;261076512;261076512;-79
2022/03/05 06:21:08;;;;;;;;;0.00;0.00;;;;;;;;2;288084415;288084415;-79
2022/03/05 06:29:23;;;;;;;;;0.00;0.00;;;;;;;;2;261076156;261076156;-79
2022/03/05 06:38:51;;;;;;;;;0.00;0.00;;;;;;;;2;288084844;288084844;-79
2022/03/05 06:47:07;;;;;;;;;0.00;0.00;;;;;;;;2;261076982;261076982;-79
2022/03/05 06:56:35;;;;;;;;;0.00;0.00;;;;;;;;2;288083027;288083027;-79
2022/03/05 07:04:50;;;;;;;;;0.00;0.00;;;;;;;;2;261075810;261075810;-79
2022/03/05 07:14:18;;;;;;;;;0.00;0.00;;;;;;;;2;288080022;288080022;-79
2022/03/05 07:22:33;;;;;;;;;0.00;0.00;;;;;;;;2;261076034;261076034;-79
2022/03/05 07:32:03;;;;;;;;;0.00;0.00;;;;;;;;2;288088161;288088161;-79
2022/03/05 07:40:19;;;;;;;;;0.00;0.00;;;;;;;;2;261076141;261076141;-78
2022/03/05 07:49:46;;;;;;;;;0.00;0.00;;;;;;;;2;288084172;288084172;-81
2022/03/05 07:58:02;;;;;;;;;0.00;0.00;;;;;;;;2;261078344;261078344;-81
2022/03/05 08:07:29;;;;;;;;;0.00;0.00;;;;;;;;2;288077651;288077651;-81
2022/03/05 08:15:45;;;;;;;;;0.00;0.00;;;;;;;;2;261076912;261076912;-81
2022/03/05 08:25:13;;;;;;;;;0.00;0.00;;;;;;;;2;288085387;288085387;-77
2022/03/05 08:33:29;;;;;;;;;0.00;0.00;;;;;;;;2;261075038;261075038;-80
2022/03/05 08:42:57;;;;;;;;;0.00;0.00;;;;;;;;2;288085823;288085823;-83
2022/03/05 08:51:12;;;;;;;;;0.00;0.00;;;;;;;;2;261080335;261080335;-82
2022/03/05 09:00:40;;;;;;;;;0.00;0.00;;;;;;;;2;288081950;288081950;-83
2022/03/05 09:08:57;;;;;;;;;0.00;0.00;;;;;;;;2;261079068;261079068;-84
2022/03/05 09:18:24;;;;;;;;;0.00;0.00;;;;;;;;2;288085480;288085480;-83
2022/03/05 09:26:40;;;;;;;;;0.00;0.00;;;;;;;;2;261078891;261078891;-82
2022/03/05 09:36:17;;;;;;;;;0.00;0.00;;;;;;;;2;288085251;288085251;-83
2022/03/05 09:44:33;;;;;;;;;0.00;0.00;;;;;;;;2;261077704;261077704;-82
2022/03/05 09:54:01;;;;;;;;;0.00;0.00;;;;;;;;2;288085516;288085516;-82
2022/03/05 10:02:17;;;;;;;;;0.00;0.00;;;;;;;;2;261077081;261077081;-79
2022/03/05 10:11:45;;;;;;;;;0.00;0.00;;;;;;;;2;288082483;288082483;-79
2022/03/05 10:20:04;;;;;;;;;0.00;0.00;;;;;;;;2;261076537;261076537;-79
2022/03/05 10:29:36;;;;;;;;;0.00;0.00;;;;;;;;2;288083811;288083811;-79
2022/03/05 10:37:52;;;;;;;;;0.00;0.00;;;;;;;;2;261076465;261076465;-81
2022/03/05 10:47:22;;;;;;;;;0.00;0.00;;;;;;;;2;288084131;288084131;-79
2022/03/05 10:55:37;;;;;;;;;0.00;0.00;;;;;;;;2;261074677;261074677;-78
2022/03/05 11:05:05;;;;;;;;;0.00;0.00;;;;;;;;2;288085577;288085577;-78
2022/03/05 11:13:21;;;;;;;;;0.00;0.00;;;;;;;;2;261079937;261079937;-79
2022/03/05 11:22:49;;;;;;;;;0.00;0.00;;;;;;;;2;288084485;288084485;-82
2022/03/05 11:31:06;;;;;;;;;0.00;0.00;;;;;;;;2;261079585;261079585;-82
2022/03/05 11:40:34;;;;;;;;;0.00;0.00;;;;;;;;2;288084116;288084116;-82
2022/03/05 11:49:04;;;;;;;;;0.00;0.00;;;;;;;;2;261075567;261075567;-82
2022/03/05 11:58:33;;;;;;;;;0.00;0.00;;;;;;;;2;288082949;288082949;-80
2022/03/05 12:06:55;;;;;;;;;0.00;0.00;;;;;;;;2;261078162;261078162;-80
2022/03/05 12:16:27;;;;;;;;;0.00;0.00;;;;;;;;2;288082100;288082100;-80
2022/03/05 12:24:43;;;;;;;;;0.00;0.00;;;;;;;;2;261076049;261076049;-82
2022/03/05 12:34:11;;;;;;;;;0.00;0.00;;;;;;;;2;288084949;288084949;-84
2022/03/05 12:42:36;;;;;;;;;0.00;0.00;;;;;;;;2;261074475;261074475;-83
2022/03/05 12:52:05;;;;;;;;;0.00;0.00;;;;;;;;2;288085498;288085498;-83
2022/03/05 13:00:21;;;;;;;;;0.00;0.00;;;;;;;;2;261081416;261081416;-83
2022/03/05 13:10:05;;;;;;;;;0.00;0.00;;;;;;;;2;288087820;288087820;-84
2022/03/05 13:18:21;;;;;;;;;0.00;0.00;;;;;;;;2;261075955;261075955;-84
2022/03/05 13:27:48;;;;;;;;;0.00;0.00;;;;;;;;2;288084062;288084062;-82
2022/03/05 13:36:22;;;;;;;;;0.00;0.00;;;;;;;;2;261079398;261079398;-79
2022/03/05 13:45:53;;;;;;;;;0.00;0.00;;;;;;;;2;288084925;288084925;-75
2022/03/05 13:54:09;;;;;;;;;0.00;0.00;;;;;;;;2;261077673;261077673;-77
2022/03/05 14:03:37;;;;;;;;;0.00;0.00;;;;;;;;2;288087500;288087500;-77
2022/03/05 14:12:00;;;;;;;;;0.00;0.00;;;;;;;;2;261078099;261078099;-78
2022/03/05 14:21:28;;;;;;;;;0.00;0.00;;;;;;;;2;288082874;288082874;-79
2022/03/05 14:29:44;;;;;;;;;0.00;0.00;;;;;;;;2;261081145;261081145;-81
2022/03/05 14:39:13;;;;;;;;;0.00;0.00;;;;;;;;2;288085919;288085919;-79
2022/03/05 14:47:28;;;;;;;;;0.00;0.00;;;;;;;;2;261082361;261082361;-79
2022/03/05 14:56:56;;;;;;;;;0.00;0.00;;;;;;;;2;288086570;288086570;-80
2022/03/05 15:05:13;;;;;;;;;0.00;0.00;;;;;;;;2;261076744;261076744;-79
2022/03/05 15:14:41;;;;;;;;;0.00;0.00;;;;;;;;2;288084399;288084399;-81
2022/03/05 15:22:56;;;;;;;;;0.00;0.00;;;;;;;;2;261080370;261080370;-80
2022/03/05 15:32:23;;;;;;;;;0.00;0.00;;;;;;;;2;288081413;288081413;-80
2022/03/05 15:40:39;;;;;;;;;0.00;0.00;;;;;;;;2;261075329;261075329;-80
2022/03/05 15:50:08;;;;;;;;;0.00;0.00;;;;;;;;2;288084698;288084698;-79
2022/03/05 15:58:23;;;;;;;;;0.00;0.00;;;;;;;;2;261080018;261080018;-80
2022/03/05 16:07:52;;;;;;;;;0.00;0.00;;;;;;;;2;288089081;288089081;-79
2022/03/05 16:16:07;;;;;;;;;0.00;0.00;;;;;;;;2;261077304;261077304;-78
2022/03/05 16:25:35;;;;;;;;;0.00;0.00;;;;;;;;2;288081788;288081788;-77
2022/03/05 16:33:51;;;;;;;;;0.00;0.00;;;;;;;;2;261078543;261078543;-77
2022/03/05 16:43:18;;;;;;;;;0.00;0.00;;;;;;;;2;288085307;288085307;-77
2022/03/05 16:51:34;;;;;;;;;0.00;0.00;;;;;;;;2;261078358;261078358;-77
2022/03/05 17:01:03;;;;;;;;;0.00;0.00;;;;;;;;2;288080416;288080416;-77
2022/03/05 17:09:19;;;;;;;;;0.00;0.00;;;;;;;;2;261076009;261076009;-77
2022/03/05 17:22:06;;;;;;;;;0.00;0.00;;;;;;;;2;288084389;288084389;-76
2022/03/05 17:30:22;;;;;;;;;0.00;0.00;;;;;;;;2;261077949;261077949;-76
2022/03/05 17:39:49;;;;;;;;;0.00;0.00;;;;;;;;2;288083688;288083688;-75
2022/03/05 17:48:05;;;;;;;;;0.00;0.00;;;;;;;;2;261074006;261074006;-77
2022/03/05 17:57:33;;;;;;;;;0.00;0.00;;;;;;;;2;288083955;288083955;-77
2022/03/05 18:05:48;;;;;;;;;0.00;0.00;;;;;;;;2;261075509;261075509;-77
2022/03/05 18:15:16;;;;;;;;;0.00;0.00;;;;;;;;2;288085499;288085499;-77
2022/03/05 18:23:32;;;;;;;;;0.00;0.00;;;;;;;;2;261077329;261077329;-77
2022/03/05 18:32:59;;;;;;;;;0.00;0.00;;;;;;;;2;288086516;288086516;-76
2022/03/05 18:41:15;;;;;;;;;0.00;0.00;;;;;;;;2;261075893;261075893;-77
2022/03/05 18:50:42;;;;;;;;;0.00;0.00;;;;;;;;2;288085983;288085983;-77
2022/03/05 18:58:58;;;;;;;;;0.00;0.00;;;;;;;;2;261079315;261079315;-77
2022/03/05 19:08:26;;;;;;;;;0.00;0.00;;;;;;;;2;288083896;288083896;-77
2022/03/05 19:16:41;;;;;;;;;0.00;0.00;;;;;;;;2;261077075;261077075;-76
2022/03/05 19:26:09;;;;;;;;;0.00;0.00;;;;;;;;2;288085767;288085767;-76
2022/03/05 19:34:25;;;;;;;;;0.00;0.00;;;;;;;;2;261078801;261078801;-76
2022/03/05 19:43:52;;;;;;;;;0.00;0.00;;;;;;;;2;288087533;288087533;-76
2022/03/05 19:52:08;;;;;;;;;0.00;0.00;;;;;;;;2;261077621;261077621;-77
2022/03/05 20:01:35;;;;;;;;;0.00;0.00;;;;;;;;2;288088463;288088463;-77
2022/03/05 20:09:51;;;;;;;;;0.00;0.00;;;;;;;;2;261079647;261079647;-78
2022/03/05 20:19:18;;;;;;;;;0.00;0.00;;;;;;;;2;288086624;288086624;-78
2022/03/05 20:27:34;;;;;;;;;0.00;0.00;;;;;;;;2;261079473;261079473;-79
2022/03/05 20:37:02;;;;;;;;;0.00;0.00;;;;;;;;2;288084550;288084550;-80
2022/03/05 20:45:17;;;;;;;;;0.00;0.00;;;;;;;;2;261078758;261078758;-79
2022/03/05 20:54:45;;;;;;;;;0.00;0.00;;;;;;;;2;288084683;288084683;-78
2022/03/05 21:03:01;;;;;;;;;0.00;0.00;;;;;;;;2;261078400;261078400;-78
2022/03/05 21:12:28;;;;;;;;;0.00;0.00;;;;;;;;2;288083774;288083774;-77
2022/03/05 21:20:44;;;;;;;;;0.00;0.00;;;;;;;;2;261076683;261076683;-77
2022/03/05 21:30:12;;;;;;;;;0.00;0.00;;;;;;;;2;288086496;288086496;-75
2022/03/05 21:38:27;;;;;;;;;0.00;0.00;;;;;;;;2;261076380;261076380;-75
2022/03/05 21:47:55;;;;;;;;;0.00;0.00;;;;;;;;2;288084698;288084698;-74
2022/03/05 21:56:10;;;;;;;;;0.00;0.00;;;;;;;;2;261081494;261081494;-75
2022/03/05 22:05:38;;;;;;;;;0.00;0.00;;;;;;;;2;288084791;288084791;-75
2022/03/05 22:13:53;;;;;;;;;0.00;0.00;;;;;;;;2;261075181;261075181;-75
2022/03/05 22:23:21;;;;;;;;;0.00;0.00;;;;;;;;2;288086403;288086403;-74
2022/03/05 22:31:36;;;;;;;;;0.00;0.00;;;;;;;;2;261076941;261076941;-74
2022/03/05 22:41:04;;;;;;;;;0.00;0.00;;;;;;;;2;288081944;288081944;-75
2022/03/05 22:49:19;;;;;;;;;0.00;0.00;;;;;;;;2;261080061;261080061;-75
2022/03/05 22:58:47;;;;;;;;;0.00;0.00;;;;;;;;2;288083263;288083263;-75
2022/03/05 23:16:48;;;;;;;;;0.00;0.00;;;;;;;;2;288086218;288086218;-75
2022/03/05 23:25:04;;;;;;;;;0.00;0.00;;;;;;;;2;261079162;261079162;-75
2022/03/05 23:34:32;;;;;;;;;0.00;0.00;;;;;;;;2;288082790;288082790;-75
2022/03/05 23:42:47;;;;;;;;;0.00;0.00;;;;;;;;2;261076487;261076487;-76
2022/03/05 23:52:15;;;;;;;;;0.00;0.00;;;;;;;;2;288083654;288083654;-74
